Time;durP1;ratioP1;P1;durP2;ratioP2;P2;SDS_P1;SDS_P2;PMS_P1;PMS_P2;Temp;Humidity;BMP_temperature;BMP_pressure;BME280_temperature;BME280_humidity;BME280_pressure;Samples;Min_cycle;Max_cycle;Signal;HPM_P1;HPM_P2
2023/02/21 02:15:58;;;;;;;5.18;2.10;;;;;;;2.32;64.74;95080.16;5078006;28;20032;-79
2023/02/21 02:18:45;;;;;;;4.88;2.90;;;;;;;2.22;64.79;95082.31;5074696;28;20040;-79
2023/02/21 02:21:42;;;;;;;4.53;2.47;;;;;;;2.21;65.36;95069.56;5091539;28;20036;-79
2023/02/21 02:24:19;;;;;;;3.95;2.17;;;;;;;2.21;64.44;95065.28;5091066;28;20052;-79
2023/02/21 02:27:15;;;;;;;4.10;2.22;;;;;;;2.16;64.92;95061.25;5091230;28;20032;-80
2023/02/21 02:30:02;;;;;;;4.38;2.65;;;;;;;2.10;64.78;95072.63;5123021;27;20040;-79
2023/02/21 02:32:34;;;;;;;3.38;2.45;;;;;;;2.16;65.06;95068.94;5091894;28;20413;-79
2023/02/21 02:35:16;;;;;;;3.83;2.30;;;;;;;2.23;64.08;95070.34;5092881;28;20032;-79
2023/02/21 02:38:21;;;;;;;4.78;2.92;;;;;;;2.12;65.05;95075.97;5074525;28;21198;-79
2023/02/21 02:40:58;;;;;;;6.20;2.95;;;;;;;2.05;64.91;95066.88;5084730;28;20036;-78
2023/02/21 02:43:33;;;;;;;5.55;2.90;;;;;;;1.96;65.17;95070.69;5074393;28;20047;-79
2023/02/21 02:46:09;;;;;;;6.18;2.90;;;;;;;2.03;65.51;95066.09;5074423;28;20028;-79
2023/02/21 02:48:41;;;;;;;5.13;2.42;;;;;;;2.00;65.28;95058.56;5090826;28;20028;-79
2023/02/21 02:51:09;;;;;;;7.13;2.90;;;;;;;1.95;65.91;95045.13;5107978;28;20406;-79
2023/02/21 02:53:35;;;;;;;4.07;1.90;;;;;;;1.96;65.85;95065.56;5108073;28;20036;-79
2023/02/21 02:56:02;;;;;;;4.00;2.50;;;;;;;1.97;65.01;95035.63;5091242;28;20024;-79
2023/02/21 02:58:31;;;;;;;4.30;2.90;;;;;;;2.03;64.49;95060.97;5090295;28;20059;-79
2023/02/21 03:01:34;;;;;;;4.32;2.38;;;;;;;1.95;64.95;95063.91;5086920;28;20498;-79
2023/02/21 03:04:17;;;;;;;3.72;2.42;;;;;;;2.03;65.14;95081.47;5090501;28;20114;-79
2023/02/21 03:07:03;;;;;;;2.97;1.92;;;;;;;1.79;65.55;95068.88;5092224;28;20040;-79
2023/02/21 03:09:49;;;;;;;3.20;2.00;;;;;;;1.89;65.04;95073.59;5073625;28;20038;-79
2023/02/21 03:12:33;;;;;;;4.43;2.42;;;;;;;1.83;65.30;95081.56;5090400;28;20038;-79
2023/02/21 03:15:06;;;;;;;3.85;2.42;;;;;;;1.64;66.15;95082.34;5058921;28;20089;-79
2023/02/21 03:17:33;;;;;;;3.40;2.65;;;;;;;1.72;66.13;95082.84;5070527;28;20032;-79
2023/02/21 03:19:58;;;;;;;4.32;2.70;;;;;;;1.60;65.90;95055.22;5063863;28;20429;-78
2023/02/21 03:22:25;;;;;;;3.58;2.63;;;;;;;1.59;66.01;95071.50;5070368;28;20031;-79
2023/02/21 03:24:51;;;;;;;3.60;2.20;;;;;;;1.56;66.24;95082.69;5051529;28;20019;-79
2023/02/21 03:27:16;;;;;;;6.35;2.67;;;;;;;1.36;67.23;95046.88;5072775;28;20020;-79
2023/02/21 03:29:43;;;;;;;5.07;2.10;;;;;;;1.48;67.51;95068.56;5056051;28;20131;-79
2023/02/21 03:34:41;;;;;;;4.10;2.08;;;;;;;1.46;67.75;95042.19;5070777;28;20032;-79
2023/02/21 03:37:20;;;;;;;5.13;2.60;;;;;;;1.52;67.39;95057.28;5071692;28;20085;-79
2023/02/21 03:39:45;;;;;;;3.42;2.28;;;;;;;1.54;68.20;95068.31;5087011;28;20047;-79
2023/02/21 03:42:11;;;;;;;4.43;2.10;;;;;;;1.57;68.11;95063.03;5089178;28;20032;-79
2023/02/21 03:44:36;;;;;;;4.20;2.22;;;;;;;1.31;67.07;95016.38;5072029;28;20032;-80
2023/02/21 03:47:02;;;;;;;12.57;6.88;;;;;;;1.44;67.54;95046.53;5072505;28;20414;-77
2023/02/21 03:49:27;;;;;;;6.47;3.92;;;;;;;1.40;68.10;95050.16;5086105;28;20371;-80
2023/02/21 03:51:53;;;;;;;4.72;2.60;;;;;;;1.30;67.89;95037.72;5082785;28;20024;-80
2023/02/21 03:54:18;;;;;;;5.15;3.00;;;;;;;1.45;68.71;95066.13;5088040;28;20051;-81
2023/02/21 03:56:46;;;;;;;3.90;2.20;;;;;;;1.30;68.32;95067.63;5071256;28;20062;-81
2023/02/21 03:59:12;;;;;;;6.45;3.33;;;;;;;1.52;67.52;95068.34;5069428;28;20134;-80
2023/02/21 04:01:37;;;;;;;4.00;2.00;;;;;;;1.38;66.77;95047.63;5069262;28;20721;-81
2023/02/21 04:04:03;;;;;;;3.97;2.40;;;;;;;1.51;66.34;95071.00;5052270;28;20445;-81
2023/02/21 04:06:28;;;;;;;9.38;6.18;;;;;;;1.38;66.68;95067.28;5066958;28;20032;-81
2023/02/21 04:08:54;;;;;;;14.55;9.80;;;;;;;1.43;66.74;95061.06;5068088;28;20039;-81
2023/02/21 04:11:20;;;;;;;6.18;4.03;;;;;;;1.54;67.42;95078.53;5086176;28;20055;-81
2023/02/21 04:13:46;;;;;;;5.65;3.50;;;;;;;1.54;67.22;95088.78;5066789;28;20055;-81
2023/02/21 04:16:12;;;;;;;4.35;2.80;;;;;;;1.47;67.86;95064.31;5069745;28;20039;-80
2023/02/21 04:18:37;;;;;;;3.92;2.60;;;;;;;1.49;67.58;95081.28;5086240;28;20028;-82
2023/02/21 04:21:03;;;;;;;3.55;2.20;;;;;;;1.57;67.47;95086.09;5099100;28;20032;-80
2023/02/21 04:23:28;;;;;;;3.53;2.00;;;;;;;1.30;67.58;95049.69;5085824;28;20016;-80
2023/02/21 04:25:53;;;;;;;3.05;2.13;;;;;;;1.40;67.29;95053.53;5052970;28;20035;-80
2023/02/21 04:28:19;;;;;;;2.30;1.60;;;;;;;1.54;66.82;95092.16;5087560;28;20024;-81
2023/02/21 04:30:45;;;;;;;4.00;2.03;;;;;;;1.46;66.88;95072.91;5085051;28;20051;-80
2023/02/21 04:33:10;;;;;;;3.10;2.42;;;;;;;1.64;67.02;95096.88;5088302;28;20024;-80
2023/02/21 04:35:36;;;;;;;3.50;2.45;;;;;;;1.68;67.11;95088.19;5086107;28;20044;-81
2023/02/21 04:38:01;;;;;;;5.72;3.80;;;;;;;1.87;66.03;95116.41;5067380;28;20048;-80
2023/02/21 04:40:27;;;;;;;9.10;6.13;;;;;;;1.79;67.14;95106.47;5069708;28;20032;-81
2023/02/21 04:42:52;;;;;;;12.60;5.20;;;;;;;1.70;67.11;95089.78;5064934;28;20040;-80
2023/02/21 04:45:17;;;;;;;7.53;4.13;;;;;;;1.70;66.78;95094.91;5089261;28;20035;-80
2023/02/21 04:47:43;;;;;;;5.55;2.95;;;;;;;1.82;66.92;95108.06;5082596;28;20569;-80
2023/02/21 04:50:08;;;;;;;4.82;2.15;;;;;;;1.62;66.48;95091.84;5085872;28;20044;-80
2023/02/21 04:52:34;;;;;;;3.75;2.47;;;;;;;1.65;66.57;95094.28;5085109;28;20115;-80
2023/02/21 04:54:59;;;;;;;3.72;1.85;;;;;;;1.56;66.82;95094.66;5087493;28;20028;-80
2023/02/21 04:57:25;;;;;;;3.42;1.90;;;;;;;1.66;66.93;95093.38;5051839;28;20497;-80
2023/02/21 04:59:58;;;;;;;3.67;1.88;;;;;;;1.65;66.97;95093.44;5084762;28;20044;-80
2023/02/21 05:02:23;;;;;;;3.85;1.90;;;;;;;1.54;67.26;95094.72;5069015;28;20085;-81
2023/02/21 05:04:49;;;;;;;3.17;1.90;;;;;;;1.58;67.09;95072.38;5069269;28;20035;-80
2023/02/21 05:07:14;;;;;;;2.58;1.60;;;;;;;1.54;66.95;95064.00;5068626;28;20071;-80
2023/02/21 05:09:40;;;;;;;4.30;2.30;;;;;;;1.68;67.03;95068.53;5052165;28;20032;-80
2023/02/21 05:12:10;;;;;;;2.75;1.83;;;;;;;1.49;67.30;95045.44;5086420;28;20463;-80
2023/02/21 05:14:37;;;;;;;3.63;1.73;;;;;;;1.61;67.38;95059.44;5086129;28;20059;-81
2023/02/21 05:17:02;;;;;;;4.25;2.20;;;;;;;1.44;67.67;95056.78;5067648;28;20047;-80
2023/02/21 05:19:28;;;;;;;4.07;2.00;;;;;;;1.37;67.15;95045.16;5067458;28;20493;-80
2023/02/21 05:21:56;;;;;;;4.82;1.80;;;;;;;1.41;67.34;95052.63;5072070;28;20418;-80
2023/02/21 05:24:23;;;;;;;4.28;2.10;;;;;;;1.71;66.36;95059.88;5072700;28;20080;-80
2023/02/21 05:26:48;;;;;;;4.07;2.00;;;;;;;1.54;67.00;95074.25;5071851;28;20107;-81
2023/02/21 05:29:14;;;;;;;4.05;2.00;;;;;;;1.49;66.64;95067.66;5087451;28;20035;-80
2023/02/21 05:31:39;;;;;;;4.05;2.15;;;;;;;1.57;66.51;95052.81;5089725;28;20375;-80
2023/02/21 05:34:05;;;;;;;4.13;2.35;;;;;;;1.61;67.11;95067.13;5072116;28;20056;-80
2023/02/21 05:36:30;;;;;;;5.20;2.95;;;;;;;1.59;66.32;95043.31;5071791;28;20036;-80
2023/02/21 05:38:56;;;;;;;4.55;2.33;;;;;;;1.82;66.13;95067.09;5086877;28;20129;-80
2023/02/21 05:41:21;;;;;;;5.32;3.38;;;;;;;1.73;66.85;95058.91;5073112;28;20506;-80
2023/02/21 05:43:47;;;;;;;5.30;2.65;;;;;;;1.65;66.90;95048.16;5056415;28;20031;-80
2023/02/21 05:46:24;;;;;;;4.85;2.58;;;;;;;1.88;66.60;95077.88;5071134;28;20289;-80
2023/02/21 05:48:49;;;;;;;4.72;2.30;;;;;;;1.85;65.48;95066.94;5088829;28;20024;-80
2023/02/21 05:51:15;;;;;;;3.10;1.98;;;;;;;1.96;66.20;95080.94;5090663;28;20036;-80
2023/02/21 05:53:40;;;;;;;4.32;2.42;;;;;;;2.08;65.57;95076.16;5089144;28;20484;-80
2023/02/21 05:56:06;;;;;;;3.08;2.03;;;;;;;2.07;65.87;95072.78;5088300;28;20047;-80
2023/02/21 05:58:31;;;;;;;3.38;1.90;;;;;;;2.13;65.42;95067.34;5085558;28;20056;-80
2023/02/21 06:00:57;;;;;;;6.63;4.05;;;;;;;2.17;65.87;95091.97;5064867;28;20576;-81
2023/02/21 06:03:22;;;;;;;4.88;3.45;;;;;;;2.09;65.62;95081.22;5072250;28;20039;-80
2023/02/21 06:05:48;;;;;;;6.18;3.97;;;;;;;2.07;66.02;95088.16;5088856;28;20028;-80
2023/02/21 06:08:13;;;;;;;7.80;4.57;;;;;;;2.09;65.58;95093.19;5069575;28;20122;-80
2023/02/21 06:10:38;;;;;;;6.90;5.03;;;;;;;2.11;66.47;95099.91;5071882;28;20058;-80
2023/02/21 06:13:04;;;;;;;7.72;4.65;;;;;;;2.21;65.04;95078.09;5072349;28;20502;-80
2023/02/21 06:15:29;;;;;;;6.30;4.53;;;;;;;2.18;65.53;95095.34;5088523;28;20401;-80
2023/02/21 06:17:55;;;;;;;7.00;4.22;;;;;;;2.27;65.92;95109.47;5088279;28;20031;-81
2023/02/21 06:20:20;;;;;;;5.57;3.03;;;;;;;2.24;66.42;95098.47;5088487;28;20036;-81
2023/02/21 06:22:46;;;;;;;4.45;3.08;;;;;;;2.38;65.33;95089.31;5086668;28;20115;-80
2023/02/21 06:25:12;;;;;;;11.82;7.47;;;;;;;2.44;65.13;95094.16;5071249;28;20063;-80
2023/02/21 06:27:38;;;;;;;14.38;9.20;;;;;;;2.60;65.01;95102.78;5087869;28;20026;-81
2023/02/21 06:30:04;;;;;;;9.18;5.78;;;;;;;2.64;64.98;95093.22;5086147;28;20119;-80
2023/02/21 06:32:29;;;;;;;10.93;6.53;;;;;;;2.82;65.16;95112.03;5070901;28;20067;-80
2023/02/21 06:34:55;;;;;;;9.75;6.00;;;;;;;2.93;64.18;95091.81;5072490;28;20478;-81
2023/02/21 06:37:20;;;;;;;7.97;5.38;;;;;;;2.93;64.59;95117.50;5091207;28;20172;-81
2023/02/21 06:39:46;;;;;;;7.80;4.70;;;;;;;2.91;64.52;95106.47;5090203;28;20105;-81
2023/02/21 06:42:15;;;;;;;7.22;4.13;;;;;;;2.97;64.12;95113.84;5091020;28;20509;-81
2023/02/21 06:44:47;;;;;;;6.18;3.80;;;;;;;2.97;64.27;95106.16;5070636;28;20032;-81
2023/02/21 06:47:12;;;;;;;6.70;3.85;;;;;;;3.22;63.96;95120.38;5088343;28;20986;-81
2023/02/21 06:49:38;;;;;;;8.27;5.13;;;;;;;3.38;64.02;95115.31;5073760;28;20391;-80
2023/02/21 06:52:04;;;;;;;8.77;5.78;;;;;;;5.32;59.53;95081.69;5085151;28;20028;-80
2023/02/21 06:54:29;;;;;;;9.88;6.65;;;;;;;9.12;49.90;95050.00;5087858;28;20032;-81
2023/02/21 06:56:55;;;;;;;7.38;4.55;;;;;;;11.91;42.52;95087.91;5069470;28;20093;-81
2023/02/21 06:59:21;;;;;;;5.55;3.22;;;;;;;13.49;38.46;95036.88;5085212;28;20048;-81
2023/02/21 07:01:46;;;;;;;6.20;3.17;;;;;;;15.51;34.47;95084.91;5088446;28;20043;-80
2023/02/21 07:04:12;;;;;;;12.38;7.20;;;;;;;16.89;31.71;95071.84;5089667;28;20483;-81
2023/02/21 07:06:37;;;;;;;6.68;4.50;;;;;;;17.92;29.88;95060.19;5088660;28;20354;-81
2023/02/21 07:09:03;;;;;;;5.38;3.42;;;;;;;17.95;29.05;95044.88;5086273;28;20137;-81
2023/02/21 07:11:30;;;;;;;6.18;3.60;;;;;;;19.24;27.84;95070.06;5054727;28;20033;-79
2023/02/21 07:13:57;;;;;;;8.35;5.00;;;;;;;20.35;25.88;95063.41;5067435;28;20044;-80
2023/02/21 07:16:23;;;;;;;9.07;5.40;;;;;;;20.93;25.20;95051.22;5076346;28;20036;-80
2023/02/21 07:18:48;;;;;;;9.27;5.53;;;;;;;21.17;24.38;95058.00;5087285;28;20024;-80
2023/02/21 07:21:14;;;;;;;7.72;5.68;;;;;;;21.62;24.04;95063.16;5105828;28;20606;-80
2023/02/21 07:23:39;;;;;;;6.03;5.10;;;;;;;21.38;23.70;95059.03;5087561;28;20051;-80
2023/02/21 07:26:05;;;;;;;9.13;5.28;;;;;;;20.23;25.02;95075.41;5068683;28;20036;-80
2023/02/21 07:28:30;;;;;;;7.93;5.82;;;;;;;19.70;25.84;95079.84;5069377;28;20024;-79
2023/02/21 07:30:56;;;;;;;6.50;4.68;;;;;;;19.33;25.50;95074.28;5067876;28;20525;-77
2023/02/21 07:33:21;;;;;;;7.97;5.47;;;;;;;19.56;25.56;95071.66;5071306;28;20025;-77
2023/02/21 07:35:46;;;;;;;9.23;6.00;;;;;;;18.82;25.72;95055.47;5077294;28;20040;-84
2023/02/21 07:38:22;;;;;;;13.98;6.63;;;;;;;17.92;27.17;95039.16;5071587;28;20032;-76
2023/02/21 07:40:48;;;;;;;14.40;4.25;;;;;;;17.93;27.23;95056.53;5069606;28;20033;-75
2023/02/21 07:43:14;;;;;;;13.40;6.57;;;;;;;18.66;26.13;95048.44;5066700;28;20050;-76
2023/02/21 07:45:39;;;;;;;12.70;7.78;;;;;;;19.15;25.67;95031.63;5088461;28;20046;-76
2023/02/21 07:48:05;;;;;;;12.32;6.32;;;;;;;19.83;25.00;95040.50;5087211;28;20031;-76
2023/02/21 07:50:30;;;;;;;13.68;9.63;;;;;;;20.09;24.22;95026.94;5070377;28;20040;-76
2023/02/21 07:52:56;;;;;;;15.32;9.15;;;;;;;20.03;24.60;95044.28;5088251;28;20028;-76
2023/02/21 07:55:21;;;;;;;11.63;8.35;;;;;;;18.91;25.83;95037.84;5089205;28;20774;-76
2023/02/21 07:57:46;;;;;;;9.23;6.13;;;;;;;17.76;27.28;95026.81;5088918;28;20067;-76
2023/02/21 08:00:12;;;;;;;9.25;5.82;;;;;;;17.03;28.83;95040.72;5090199;28;20128;-76
2023/02/21 08:02:38;;;;;;;8.45;5.65;;;;;;;15.79;29.94;95048.97;5073554;28;20020;-75
2023/02/21 08:05:05;;;;;;;10.35;4.97;;;;;;;14.70;32.07;95039.47;5090343;28;20032;-76
2023/02/21 08:07:30;;;;;;;11.88;5.78;;;;;;;14.27;32.77;95038.28;5090443;28;20686;-76
2023/02/21 08:09:56;;;;;;;10.30;5.55;;;;;;;14.28;32.92;95039.94;5073330;28;20028;-75
2023/02/21 08:12:21;;;;;;;16.25;6.10;;;;;;;14.25;33.14;95040.22;5090154;28;20032;-76
2023/02/21 08:14:47;;;;;;;7.72;5.05;;;;;;;13.48;34.34;95043.03;5091336;28;20035;-75
2023/02/21 08:17:12;;;;;;;8.27;5.32;;;;;;;13.07;35.03;95035.34;5090125;28;20039;-76
2023/02/21 08:19:38;;;;;;;15.68;5.03;;;;;;;12.73;35.55;95047.91;5091152;28;20020;-76
2023/02/21 08:22:04;;;;;;;10.90;5.28;;;;;;;12.56;36.19;95051.16;5090072;28;20036;-76
2023/02/21 08:24:29;;;;;;;12.15;4.72;;;;;;;12.21;36.51;95055.03;5090037;28;20057;-76
2023/02/21 08:26:55;;;;;;;8.80;4.93;;;;;;;12.22;37.10;95039.25;5089993;28;20027;-77
2023/02/21 08:29:20;;;;;;;12.85;7.15;;;;;;;12.26;37.18;95032.03;5072380;28;20113;-76
2023/02/21 08:31:46;;;;;;;10.20;5.40;;;;;;;12.10;37.74;95042.09;5073161;28;20024;-76
2023/02/21 08:34:11;;;;;;;9.75;5.07;;;;;;;12.10;38.00;95029.91;5089900;28;20024;-79
2023/02/21 08:36:39;;;;;;;7.13;4.80;;;;;;;11.97;38.09;95035.31;5073424;28;20032;-79
2023/02/21 08:39:04;;;;;;;9.57;5.00;;;;;;;12.01;38.91;95028.91;5072969;28;20100;-76
2023/02/21 08:41:41;;;;;;;10.23;5.20;;;;;;;11.66;39.36;95031.03;5073391;28;20482;-78
2023/02/21 08:44:07;;;;;;;12.55;5.07;;;;;;;11.84;38.99;95019.09;5073250;28;20024;-78
2023/02/21 08:46:33;;;;;;;12.35;5.57;;;;;;;11.88;38.76;95024.88;5073289;28;20090;-78
2023/02/21 08:48:58;;;;;;;10.25;5.63;;;;;;;11.88;38.86;95028.31;5072830;28;20028;-76
2023/02/21 08:51:25;;;;;;;11.52;5.07;;;;;;;11.42;39.22;94995.69;5089828;28;20032;-78
2023/02/21 08:53:51;;;;;;;8.00;4.22;;;;;;;11.61;39.04;95021.81;5089710;28;20047;-76
2023/02/21 08:56:20;;;;;;;8.55;4.22;;;;;;;11.42;39.23;95016.50;5076492;28;20111;-76
2023/02/21 08:58:45;;;;;;;8.65;4.53;;;;;;;11.33;38.74;94996.47;5093753;28;20490;-79
2023/02/21 09:01:11;;;;;;;10.05;4.32;;;;;;;11.48;39.18;95026.41;5093876;28;20032;-77
2023/02/21 09:03:36;;;;;;;9.48;4.43;;;;;;;11.62;39.03;95033.88;5076627;28;20046;-76
2023/02/21 09:06:02;;;;;;;13.65;5.05;;;;;;;11.60;39.04;95022.78;5093593;28;20032;-76
2023/02/21 09:08:29;;;;;;;7.93;4.63;;;;;;;11.62;39.10;95022.66;5094508;28;20027;-79
2023/02/21 09:11:01;;;;;;;9.52;4.60;;;;;;;11.67;38.78;95006.66;5076853;28;20036;-76
2023/02/21 09:13:27;;;;;;;6.07;4.20;;;;;;;11.60;38.68;95008.94;5077282;28;20103;-77
2023/02/21 09:15:53;;;;;;;10.07;4.53;;;;;;;11.50;38.42;95002.84;5076732;28;20059;-79
2023/02/21 09:18:18;;;;;;;9.23;4.38;;;;;;;11.62;38.66;95013.06;5076489;28;20520;-77
2023/02/21 09:20:44;;;;;;;10.27;4.20;;;;;;;11.75;38.70;94999.84;5093061;28;20039;-78
2023/02/21 09:23:10;;;;;;;7.93;4.05;;;;;;;11.91;38.48;95011.59;5076278;28;20020;-76
2023/02/21 09:25:35;;;;;;;5.90;3.30;;;;;;;11.82;37.71;95003.59;5093352;28;20136;-77
2023/02/21 09:28:01;;;;;;;8.70;4.80;;;;;;;11.99;38.00;94996.97;5075896;28;20036;-78
2023/02/21 09:30:28;;;;;;;8.07;3.97;;;;;;;11.85;38.08;94994.69;5093004;28;20471;-78
2023/02/21 09:32:54;;;;;;;5.50;3.92;;;;;;;11.98;38.26;94997.94;5092981;28;20032;-79
2023/02/21 09:35:19;;;;;;;8.13;4.38;;;;;;;11.94;38.12;95003.53;5092906;28;20024;-77
2023/02/21 09:37:45;;;;;;;8.65;4.10;;;;;;;11.87;38.22;94982.41;5092731;28;20036;-79
2023/02/21 09:40:40;;;;;;;6.93;3.85;;;;;;;11.97;38.15;94969.41;5092863;28;20493;-78
2023/02/21 09:43:10;;;;;;;8.23;3.90;;;;;;;12.16;37.42;94982.50;5076724;28;20494;-78
2023/02/21 09:45:36;;;;;;;6.07;3.47;;;;;;;11.76;37.15;94977.25;5092888;28;20115;-78
2023/02/21 09:48:07;;;;;;;7.18;3.47;;;;;;;12.04;37.29;94971.38;5075803;28;20276;-77
2023/02/21 09:50:33;;;;;;;;;;;;;;;12.26;37.26;94974.72;5076564;28;20481;-78
2023/02/21 09:52:59;;;;;;;6.80;3.60;;;;;;;12.31;37.02;94962.09;5092465;28;20391;-78
2023/02/21 09:55:32;;;;;;;10.40;3.50;;;;;;;12.41;35.84;94973.38;5075618;28;20036;-77
2023/02/21 09:57:58;;;;;;;5.22;3.03;;;;;;;12.69;35.66;94957.91;5092621;28;20055;-78
2023/02/21 10:00:28;;;;;;;6.90;2.85;;;;;;;12.81;36.17;94949.00;5075522;28;20028;-78
2023/02/21 10:03:09;;;;;;;5.15;2.85;;;;;;;13.03;35.07;94952.28;5075784;28;20032;-78
2023/02/21 10:05:47;;;;;;;4.55;3.03;;;;;;;13.24;35.67;94952.13;5093660;28;20482;-78
2023/02/21 10:08:43;;;;;;;10.60;3.60;;;;;;;13.41;34.53;94935.78;5092842;28;20020;-78
2023/02/21 10:11:46;;;;;;;6.70;3.33;;;;;;;13.70;33.79;94930.47;5075239;28;20056;-78
2023/02/21 10:14:17;;;;;;;10.07;3.53;;;;;;;13.92;33.67;94929.28;5093480;28;20062;-78
2023/02/21 10:16:45;;;;;;;6.35;2.97;;;;;;;14.01;31.98;94922.34;5092204;28;20043;-78
2023/02/21 10:19:10;;;;;;;9.07;3.63;;;;;;;14.00;32.77;94920.72;5093300;28;20024;-78
2023/02/21 10:21:49;;;;;;;5.00;3.05;;;;;;;14.15;31.35;94913.22;5093539;28;20040;-78
2023/02/21 10:24:21;;;;;;;7.43;2.97;;;;;;;14.25;31.59;94906.97;5075777;28;20513;-78
2023/02/21 10:27:00;;;;;;;6.05;3.10;;;;;;;14.46;31.97;94905.88;5075056;28;20040;-77
2023/02/21 10:29:32;;;;;;;6.18;3.30;;;;;;;14.72;32.04;94912.03;5091818;28;20054;-78
2023/02/21 10:32:01;;;;;;;7.97;3.58;;;;;;;14.72;33.11;94919.88;5092557;28;20040;-76
2023/02/21 10:34:28;;;;;;;7.78;3.22;;;;;;;14.80;32.30;94902.63;5091639;28;20459;-79
2023/02/21 10:36:58;;;;;;;6.63;3.00;;;;;;;14.82;30.25;94903.28;5091622;28;20031;-79
2023/02/21 10:39:46;;;;;;;17.53;3.63;;;;;;;14.82;31.91;94900.66;5075113;28;20040;-79
2023/02/21 10:42:13;;;;;;;4.97;3.17;;;;;;;14.74;32.00;94863.03;5091221;28;20124;-78
2023/02/21 10:44:39;;;;;;;5.68;3.38;;;;;;;14.90;30.34;94879.81;5091441;28;20036;-79
2023/02/21 10:47:23;;;;;;;6.68;3.50;;;;;;;15.13;30.91;94878.34;5091582;27;20544;-78
2023/02/21 10:50:03;;;;;;;8.05;3.05;;;;;;;15.32;31.46;94871.25;5076299;28;20169;-79
2023/02/21 10:52:29;;;;;;;8.95;3.10;;;;;;;15.33;29.76;94857.22;5091369;28;20055;-79
2023/02/21 10:55:14;;;;;;;5.45;2.90;;;;;;;15.44;29.69;94858.75;5074533;28;20486;-78
2023/02/21 10:57:42;;;;;;;4.43;2.63;;;;;;;15.51;29.24;94839.63;5092309;28;20027;-78
2023/02/21 11:00:11;;;;;;;7.03;3.50;;;;;;;15.62;30.10;94852.44;5074481;28;20509;-79
2023/02/21 11:02:39;;;;;;;7.10;2.75;;;;;;;15.52;30.03;94840.47;5091091;28;20039;-79
2023/02/21 11:05:12;;;;;;;5.68;2.78;;;;;;;15.74;29.75;94833.88;5074698;28;20032;-78
2023/02/21 11:07:37;;;;;;;5.90;3.00;;;;;;;15.75;29.70;94830.28;5092162;28;20024;-78
2023/02/21 11:10:27;;;;;;;5.47;2.65;;;;;;;15.57;29.42;94831.16;5074345;28;20058;-78
2023/02/21 11:13:14;;;;;;;9.23;3.23;;;;;;;15.52;28.95;94809.06;5083566;28;20040;-78
2023/02/21 11:15:40;;;;;;;5.38;2.63;;;;;;;15.66;28.16;94774.41;5091280;28;20043;-78
2023/02/21 11:18:23;;;;;;;4.38;2.60;;;;;;;15.97;28.39;94816.59;5073749;28;20111;-79
2023/02/21 11:20:48;;;;;;;6.05;2.80;;;;;;;15.86;28.21;94801.19;5090906;28;20047;-79
2023/02/21 11:23:32;;;;;;;5.63;2.75;;;;;;;16.04;27.31;94794.00;5107899;28;20028;-79
2023/02/21 11:26:09;;;;;;;7.95;2.92;;;;;;;16.24;28.84;94806.81;5092483;28;20036;-79
2023/02/21 11:28:44;;;;;;;24.73;9.32;;;;;;;16.49;27.99;94805.03;5090878;28;20497;-78
2023/02/21 11:31:29;;;;;;;6.60;2.35;;;;;;;16.59;25.88;94791.78;5074552;28;20093;-79
2023/02/21 11:33:59;;;;;;;7.82;3.50;;;;;;;16.87;25.14;94784.41;5073606;28;20455;-78
2023/02/21 11:36:34;;;;;;;9.38;5.78;;;;;;;17.10;24.67;94793.19;5092211;28;20097;-78
2023/02/21 11:39:03;;;;;;;5.65;4.10;;;;;;;17.24;24.69;94785.63;5090452;28;20462;-79
2023/02/21 11:41:29;;;;;;;2.72;1.85;;;;;;;17.45;24.16;94785.91;5092292;28;20036;-79
2023/02/21 11:43:55;;;;;;;4.88;2.67;;;;;;;17.47;24.47;94773.44;5090428;28;20047;-79
2023/02/21 11:46:30;;;;;;;2.90;1.60;;;;;;;17.67;23.54;94775.66;5073730;28;20123;-78
2023/02/21 11:49:13;;;;;;;3.25;1.30;;;;;;;17.72;23.60;94768.03;5091534;28;20570;-78
2023/02/21 11:51:53;;;;;;;2.20;1.30;;;;;;;17.88;23.38;94759.28;5091995;28;20447;-79
2023/02/21 11:54:19;;;;;;;3.53;1.40;;;;;;;17.93;22.95;94759.59;5073340;28;20128;-78
2023/02/21 11:56:58;;;;;;;4.82;1.70;;;;;;;17.82;23.45;94755.56;5073548;28;20101;-79
2023/02/21 11:59:45;;;;;;;2.20;1.40;;;;;;;17.83;23.41;94757.22;5090136;28;20139;-79
2023/02/21 12:02:31;;;;;;;3.03;1.30;;;;;;;17.94;23.07;94750.72;5090088;28;20024;-79
2023/02/21 12:05:38;;;;;;;3.53;1.50;;;;;;;17.92;23.36;94742.22;5089911;28;20059;-79
2023/02/21 12:08:03;;;;;;;4.07;1.42;;;;;;;17.99;23.56;94733.44;5059581;28;20123;-79
2023/02/21 12:10:51;;;;;;;4.30;1.63;;;;;;;17.99;24.06;94733.44;5091474;28;20561;-79
2023/02/21 12:13:22;;;;;;;4.00;1.73;;;;;;;18.01;23.52;94725.38;5091438;28;20036;-79
2023/02/21 12:16:20;;;;;;;4.68;1.80;;;;;;;18.08;23.45;94721.09;5089971;28;20123;-78
2023/02/21 12:18:55;;;;;;;3.72;1.73;;;;;;;18.23;22.97;94707.97;5091044;28;20020;-78
2023/02/21 12:21:48;;;;;;;3.13;1.70;;;;;;;18.15;23.38;94719.38;5089784;28;20481;-78
2023/02/21 12:24:34;;;;;;;4.53;1.70;;;;;;;18.07;23.74;94714.16;5089797;28;20047;-78
2023/02/21 12:27:12;;;;;;;3.45;2.10;;;;;;;17.99;23.57;94696.63;5073037;28;20061;-79
2023/02/21 12:30:02;;;;;;;3.45;1.40;;;;;;;17.94;23.63;94698.16;5090475;28;20080;-79
2023/02/21 12:32:50;;;;;;;3.05;1.70;;;;;;;17.94;23.67;94700.78;5079984;28;20515;-78
2023/02/21 12:35:29;;;;;;;2.97;1.52;;;;;;;17.96;23.47;94704.88;5078455;28;20028;-79
2023/02/21 12:38:13;;;;;;;2.17;1.30;;;;;;;17.97;23.31;94698.66;5095222;28;20435;-79
2023/02/21 12:40:53;;;;;;;3.17;1.65;;;;;;;17.93;24.13;94699.16;5095004;28;20103;-80
2023/02/21 12:43:21;;;;;;;3.17;1.70;;;;;;;17.93;24.20;94697.34;5093767;28;20063;-79
2023/02/21 12:46:05;;;;;;;2.40;1.50;;;;;;;17.93;24.01;94686.84;5095270;28;20024;-78
2023/02/21 12:48:38;;;;;;;13.10;9.88;;;;;;;17.92;23.92;94689.66;5094876;28;20186;-79
2023/02/21 12:51:08;;;;;;;8.50;4.70;;;;;;;17.84;23.74;94680.81;5094115;28;20040;-79
2023/02/21 12:53:59;;;;;;;6.47;3.88;;;;;;;17.95;23.79;94682.22;5077046;28;20115;-79
2023/02/21 12:56:53;;;;;;;5.53;3.00;;;;;;;17.93;23.74;94680.78;5093752;28;20508;-79
2023/02/21 12:59:41;;;;;;;3.42;1.70;;;;;;;17.67;24.43;94684.53;5076698;28;20498;-78
2023/02/21 13:02:28;;;;;;;3.45;1.50;;;;;;;17.72;24.62;94684.81;5093424;28;20035;-78
2023/02/21 13:04:56;;;;;;;3.65;2.75;;;;;;;17.86;24.41;94684.09;5094713;28;20039;-79
2023/02/21 13:07:43;;;;;;;4.45;2.38;;;;;;;17.89;24.13;94682.13;5093332;28;20028;-78
2023/02/21 13:10:17;;;;;;;2.65;1.42;;;;;;;17.94;24.09;94677.13;5077307;28;20430;-78
2023/02/21 13:12:44;;;;;;;2.58;1.33;;;;;;;17.98;23.74;94671.38;5060079;28;20390;-79
2023/02/21 13:15:17;;;;;;;2.65;1.20;;;;;;;17.98;23.68;94667.94;5093295;28;20425;-79
2023/02/21 13:17:45;;;;;;;4.07;1.50;;;;;;;17.85;24.21;94676.38;5092987;28;20035;-79
2023/02/21 13:20:18;;;;;;;4.25;1.58;;;;;;;17.81;24.18;94668.03;5076636;28;20520;-79
2023/02/21 13:25:52;;;;;;;4.50;2.20;;;;;;;17.92;23.42;94658.13;5079072;28;20097;-78
2023/02/21 13:28:22;;;;;;;2.75;1.27;;;;;;;17.98;23.10;94652.97;5094477;28;20459;-79
2023/02/21 13:30:50;;;;;;;4.45;2.10;;;;;;;17.79;23.85;94650.81;5093193;28;20383;-78
2023/02/21 13:33:43;;;;;;;3.08;1.67;;;;;;;17.90;23.66;94645.16;5076245;28;20032;-79
2023/02/21 13:36:17;;;;;;;2.25;1.42;;;;;;;17.97;23.67;94640.00;5073854;28;20040;-78
2023/02/21 13:38:43;;;;;;;3.15;1.90;;;;;;;17.94;23.45;94645.59;5094040;28;20028;-79
2023/02/21 13:41:09;;;;;;;3.72;1.30;;;;;;;17.80;23.78;94642.78;5092703;28;20043;-78
2023/02/21 13:43:36;;;;;;;3.70;1.52;;;;;;;17.93;23.97;94631.66;5092744;28;20031;-78
2023/02/21 13:46:43;;;;;;;4.60;1.80;;;;;;;17.92;24.17;94637.91;5075722;28;20444;-79
2023/02/21 13:49:46;;;;;;;3.45;1.58;;;;;;;17.95;23.75;94631.50;5093890;28;20044;-78
2023/02/21 13:52:24;;;;;;;3.67;1.70;;;;;;;17.99;23.43;94627.50;5075989;28;20122;-79
2023/02/21 13:55:14;;;;;;;2.65;1.52;;;;;;;17.83;23.99;94634.53;5092499;28;20452;-78
2023/02/21 13:57:40;;;;;;;4.00;2.50;;;;;;;17.78;23.50;94622.88;5093680;28;20027;-79
2023/02/21 14:00:24;;;;;;;5.63;2.33;;;;;;;17.96;23.37;94622.59;5092546;28;20096;-79
2023/02/21 14:03:01;;;;;;;3.97;2.50;;;;;;;17.79;24.10;94620.09;5093577;28;20035;-79
2023/02/21 14:05:46;;;;;;;3.03;1.75;;;;;;;17.94;23.49;94614.91;5093463;28;20080;-79
2023/02/21 14:08:14;;;;;;;6.00;1.63;;;;;;;17.62;24.91;94614.13;5092135;28;20102;-79
2023/02/21 14:10:43;;;;;;;5.68;1.95;;;;;;;17.68;24.27;94617.84;5075980;28;20032;-78
2023/02/21 14:13:41;;;;;;;4.97;2.15;;;;;;;17.80;23.80;94619.13;5092397;28;20024;-78
2023/02/21 14:16:06;;;;;;;10.05;6.00;;;;;;;17.86;23.76;94614.97;5093887;28;20032;-79